createdAt,value
2022-10-21T00:00:06.274Z,101394.53
2022-10-21T00:02:28.514Z,101392.91
2022-10-21T00:04:50.988Z,101395.63
2022-10-21T00:07:13.296Z,101394.81
2022-10-21T00:09:35.631Z,101382.25
2022-10-21T00:11:57.960Z,101375.09
2022-10-21T00:14:20.305Z,101361.69
2022-10-21T00:16:42.644Z,101361.69
2022-10-21T00:19:05.013Z,101360.34
2022-10-21T00:21:27.364Z,101357.84
2022-10-21T00:23:52.666Z,101360.28
2022-10-21T00:26:15.356Z,101355.66
2022-10-21T00:28:37.731Z,101349.03
2022-10-21T00:31:00.112Z,101352.31
2022-10-21T00:33:22.531Z,101342.41
2022-10-21T00:35:57.449Z,101337.22
2022-10-21T00:38:19.869Z,101329.78
2022-10-21T00:40:42.194Z,101351.44
2022-10-21T00:43:04.530Z,101345.97
2022-10-21T00:45:28.906Z,101344.81
2022-10-21T00:47:54.800Z,101338.81
2022-10-21T00:50:41.735Z,101336.59
2022-10-21T00:53:07.171Z,101332.44
2022-10-21T00:55:33.754Z,101329.72
2022-10-21T00:57:56.142Z,101340.09
2022-10-21T01:00:18.531Z,101340.94
2022-10-21T01:02:40.867Z,101334.31
2022-10-21T01:05:03.815Z,101335.44
2022-10-21T01:07:26.218Z,101329.97
2022-10-21T01:09:48.521Z,101323.06
2022-10-21T01:12:58.874Z,101325.25
2022-10-21T01:15:36.109Z,101327.44
2022-10-21T01:18:09.424Z,101310.41
2022-10-21T01:21:08.854Z,101301.91
2022-10-21T01:23:54.981Z,101311.78
2022-10-21T01:26:49.013Z,101300.53
2022-10-21T01:29:25.308Z,101291.19
2022-10-21T01:32:02.950Z,101287.38
2022-10-21T01:35:06.951Z,101276.97
2022-10-21T01:37:57.780Z,101275.63
2022-10-21T01:40:55.366Z,101263.63
2022-10-21T01:43:43.643Z,101256.72
2022-10-21T01:46:15.767Z,101245.81
2022-10-21T01:48:42.117Z,101233.25
2022-10-21T01:51:06.607Z,101226.97
2022-10-21T01:53:40.486Z,101220.69
2022-10-21T01:56:02.824Z,101217.16
2022-10-21T01:58:28.922Z,101217.94
2022-10-21T02:00:52.250Z,101218.78
2022-10-21T02:03:27.081Z,101227.81
2022-10-21T02:05:49.390Z,101223.69
2022-10-21T02:08:11.743Z,101219.06
2022-10-21T02:10:47.548Z,101211.41
2022-10-21T02:13:11.831Z,101214.66
2022-10-21T02:15:34.271Z,101210.25
2022-10-21T02:18:03.083Z,101220.69
2022-10-21T02:20:26.309Z,101211.09
2022-10-21T02:22:48.697Z,101205.91
2022-10-21T02:25:23.109Z,101207.50
2022-10-21T02:27:45.497Z,101216.00
2022-10-21T02:30:08.600Z,101214.06
2022-10-21T02:33:11.493Z,101203.09
2022-10-21T02:35:46.499Z,101191.09
2022-10-21T02:38:13.938Z,101189.16
2022-10-21T02:40:50.064Z,101184.50
2022-10-21T02:43:34.218Z,101178.50
2022-10-21T02:46:02.169Z,101189.16
2022-10-21T02:48:24.492Z,101188.34
2022-10-21T02:50:46.837Z,101183.69
2022-10-21T02:53:09.694Z,101192.16
2022-10-21T02:55:32.027Z,101198.41
2022-10-21T02:57:54.410Z,101203.31
2022-10-21T03:00:16.839Z,101209.59
2022-10-21T03:02:39.172Z,101209.59
2022-10-21T03:05:01.555Z,101212.06
2022-10-21T03:07:23.889Z,101200.34
2022-10-21T03:09:46.191Z,101188.53
2022-10-21T03:12:08.521Z,101198.06
2022-10-21T03:14:30.839Z,101187.97
2022-10-21T03:16:53.156Z,101195.34
2022-10-21T03:19:15.483Z,101204.06
2022-10-21T03:21:37.826Z,101199.41
2022-10-21T03:24:00.187Z,101196.41
2022-10-21T03:26:22.605Z,101183.84
2022-10-21T03:28:44.917Z,101179.22
2022-10-21T03:31:08.127Z,101179.22
2022-10-21T03:33:30.431Z,101168.00
2022-10-21T03:35:52.831Z,101172.41
2022-10-21T03:38:15.175Z,101187.19
2022-10-21T03:40:37.517Z,101175.69
2022-10-21T03:43:00.024Z,101180.31
2022-10-21T03:45:22.515Z,101176.75
2022-10-21T03:47:44.890Z,101171.56
2022-10-21T03:50:11.845Z,101170.75
2022-10-21T03:52:36.629Z,101172.41
2022-10-21T03:54:59.208Z,101164.22
2022-10-21T03:57:21.553Z,101158.16
2022-10-21T03:59:43.878Z,101154.06
2022-10-21T04:02:06.343Z,101146.16
2022-10-21T04:04:28.753Z,101140.38
2022-10-21T04:06:51.169Z,101142.28
2022-10-21T04:09:13.598Z,101139.63
2022-10-21T04:11:36.009Z,101137.97
2022-10-21T04:13:58.350Z,101122.09
2022-10-21T04:16:21.302Z,101120.19
2022-10-21T04:18:43.651Z,101118.28
2022-10-21T04:21:06.091Z,101098.34
2022-10-21T04:23:28.517Z,101096.44
2022-10-21T04:25:50.941Z,101089.84
2022-10-21T04:28:13.269Z,101073.75
2022-10-21T04:30:35.599Z,101072.13
2022-10-21T04:32:57.946Z,101082.47
2022-10-21T04:35:20.268Z,101080.34
2022-10-21T04:37:22.396Z,101082.78
2022-10-21T04:39:24.594Z,101077.31
2022-10-21T04:41:26.771Z,101070.72
2022-10-21T04:43:29.586Z,101080.03
2022-10-21T04:45:31.680Z,101070.72
2022-10-21T04:47:33.795Z,101078.06
2022-10-21T04:49:35.939Z,101077.25
2022-10-21T04:51:38.054Z,101078.66
2022-10-21T04:53:40.214Z,101077.25
2022-10-21T04:55:42.322Z,101064.41
2022-10-21T04:57:44.519Z,101061.91
2022-10-21T04:59:46.998Z,101052.66
2022-10-21T05:01:49.132Z,101056.16
2022-10-21T05:03:51.255Z,101046.34
2022-10-21T05:05:53.555Z,101052.06
2022-10-21T05:07:55.650Z,101052.06
2022-10-21T05:09:57.726Z,101051.50
2022-10-21T05:11:59.885Z,101046.34
2022-10-21T05:14:02.108Z,101042.22
2022-10-21T05:16:04.630Z,101037.31
2022-10-21T05:18:06.739Z,101031.84
2022-10-21T05:20:10.249Z,101031.03
2022-10-21T05:22:12.830Z,101028.84
2022-10-21T05:24:15.617Z,101025.31
2022-10-21T05:26:17.755Z,101034.88
2022-10-21T05:28:20.301Z,101038.44
2022-10-21T05:30:22.382Z,101033.78
2022-10-21T05:32:24.805Z,101023.69
2022-10-21T05:34:26.906Z,101022.06
2022-10-21T05:36:29.017Z,101014.94
2022-10-21T05:38:31.265Z,101020.94
2022-10-21T05:40:33.433Z,101013.84
2022-10-21T05:42:35.776Z,101009.47
2022-10-21T05:44:37.991Z,101012.75
2022-10-21T05:46:40.100Z,100987.09
2022-10-21T05:48:42.224Z,101010.59
2022-10-21T05:50:45.869Z,101005.69
2022-10-21T05:52:47.972Z,101001.88
2022-10-21T05:54:50.082Z,100994.75
2022-10-21T05:56:55.046Z,100990.13
2022-10-21T05:58:57.161Z,100986.03
2022-10-21T06:00:59.561Z,100987.97
2022-10-21T06:03:01.708Z,100995.59
2022-10-21T06:05:04.088Z,100992.84
2022-10-21T06:07:06.287Z,100976.22
2022-10-21T06:09:08.451Z,100975.69
2022-10-21T06:11:16.655Z,100990.16
2022-10-21T06:13:18.773Z,100980.31
2022-10-21T06:15:20.933Z,100988.28
2022-10-21T06:17:23.146Z,100979.25
2022-10-21T06:19:25.327Z,100971.34
2022-10-21T06:21:27.447Z,100980.13
2022-10-21T06:23:29.547Z,100973.53
2022-10-21T06:25:31.674Z,100968.06
2022-10-21T06:27:33.846Z,100974.41
2022-10-21T06:29:35.969Z,100970.84
2022-10-21T06:31:38.079Z,100965.91
2022-10-21T06:33:40.215Z,100970.03
2022-10-21T06:35:42.302Z,100967.84
2022-10-21T06:37:44.579Z,100965.66
2022-10-21T06:39:46.765Z,100955.56
2022-10-21T06:41:48.893Z,100949.25
2022-10-21T06:43:51.014Z,100952.81
2022-10-21T06:45:53.144Z,100945.44
2022-10-21T06:47:55.245Z,100939.72
2022-10-21T06:49:57.442Z,100938.09
2022-10-21T06:51:59.542Z,100936.44
2022-10-21T06:54:01.668Z,100918.13
2022-10-21T06:56:09.128Z,100913.50
2022-10-21T06:58:11.220Z,100911.31
2022-10-21T07:00:13.950Z,100908.56
2022-10-21T07:02:15.960Z,100920.34
2022-10-21T07:04:18.018Z,100923.63
2022-10-21T07:06:20.199Z,100915.69
2022-10-21T07:08:22.535Z,100917.06
2022-10-21T07:10:36.471Z,100911.31
2022-10-21T07:12:38.674Z,100907.75
2022-10-21T07:14:40.815Z,100901.47
2022-10-21T07:16:43.001Z,100895.47
2022-10-21T07:18:45.197Z,100885.84
2022-10-21T07:20:47.308Z,100883.38
2022-10-21T07:22:49.400Z,100881.47
2022-10-21T07:24:51.613Z,100873.53
2022-10-21T07:26:53.757Z,100881.44
2022-10-21T07:28:58.166Z,100880.06
2022-10-21T07:31:00.283Z,100886.91
2022-10-21T07:33:02.361Z,100878.13
2022-10-21T07:35:04.847Z,100890.72
2022-10-21T07:37:07.039Z,100879.72
2022-10-21T07:39:13.857Z,100887.94
2022-10-21T07:41:37.279Z,100886.00
2022-10-21T07:43:39.446Z,100886.81
2022-10-21T07:45:42.518Z,100881.88
2022-10-21T07:47:44.614Z,100886.50
2022-10-21T07:49:46.731Z,100896.63
2022-10-21T07:51:50.560Z,100905.66
2022-10-21T07:53:55.027Z,100912.47
2022-10-21T07:56:10.920Z,100907.78
2022-10-21T07:58:13.083Z,100895.19
2022-10-21T08:00:15.243Z,100889.94
2022-10-21T08:02:17.414Z,100888.28
2022-10-21T08:04:21.997Z,100893.75
2022-10-21T08:06:25.206Z,100899.72
2022-10-21T08:08:27.778Z,100896.41
2022-10-21T08:10:29.860Z,100901.84
2022-10-21T08:12:31.988Z,100890.03
2022-10-21T08:14:34.567Z,100886.69
2022-10-21T08:16:36.899Z,100881.69
2022-10-21T08:18:39.008Z,100868.47
2022-10-21T08:20:43.404Z,100881.06
2022-10-21T08:22:45.523Z,100868.94
2022-10-21T08:24:47.622Z,100860.91
2022-10-21T08:26:51.050Z,100874.28
2022-10-21T08:28:53.215Z,100883.00
2022-10-21T08:31:15.500Z,100878.81
2022-10-21T08:33:17.663Z,100888.63
2022-10-21T08:35:19.781Z,100889.72
2022-10-21T08:37:24.925Z,100894.63
2022-10-21T08:39:29.140Z,100882.22
2022-10-21T08:41:31.187Z,100881.38
2022-10-21T08:43:34.418Z,100889.84
2022-10-21T08:46:01.778Z,100905.44
2022-10-21T08:48:05.867Z,100892.78
2022-10-21T08:50:15.789Z,100899.34
2022-10-21T08:52:22.289Z,100907.28
2022-10-21T08:55:00.242Z,100908.88
2022-10-21T08:57:03.194Z,100900.69
2022-10-21T08:59:20.776Z,100900.03
2022-10-21T09:01:39.619Z,100899.38
2022-10-21T09:03:55.203Z,100893.78
2022-10-21T09:06:36.249Z,100884.06
2022-10-21T09:09:07.983Z,100880.19
2022-10-21T09:11:24.803Z,100869.66
2022-10-21T09:13:46.801Z,100874.53
2022-10-21T09:16:09.576Z,100874.16
2022-10-21T09:18:56.014Z,100877.06
2022-10-21T09:21:22.613Z,100871.44
2022-10-21T09:23:46.956Z,100866.22
2022-10-21T09:26:17.453Z,100864.75
2022-10-21T09:28:19.569Z,100881.41
2022-10-21T09:30:22.991Z,100877.44
2022-10-21T09:34:47.669Z,100875.38
2022-10-21T09:36:50.301Z,100882.50
2022-10-21T09:39:00.280Z,100881.69
2022-10-21T09:41:03.736Z,100887.13
2022-10-21T09:43:05.946Z,100871.34
2022-10-21T09:45:22.298Z,100872.25
2022-10-21T09:47:24.843Z,100867.03
2022-10-21T09:49:54.718Z,100869.19
2022-10-21T09:51:52.751Z,100869.69
2022-10-21T09:53:57.880Z,100871.88
2022-10-21T09:56:05.230Z,100874.91
2022-10-21T09:58:07.317Z,100867.25
2022-10-21T10:00:12.830Z,100859.50
2022-10-21T10:02:16.202Z,100858.91
2022-10-21T10:04:31.124Z,100861.06
2022-10-21T10:06:38.950Z,100868.53
2022-10-21T10:08:47.614Z,100861.88
2022-10-21T10:10:49.908Z,100857.69
2022-10-21T10:12:58.710Z,100852.84
2022-10-21T10:15:29.351Z,100850.53
2022-10-21T10:17:51.972Z,100846.25
2022-10-21T10:20:19.823Z,100836.22
2022-10-21T10:22:45.843Z,100826.63
2022-10-21T10:25:11.728Z,100817.63
2022-10-21T10:27:34.150Z,100816.94
2022-10-21T10:29:56.955Z,100806.34
2022-10-21T10:32:19.338Z,100804.50
2022-10-21T10:34:53.674Z,100807.16
2022-10-21T10:37:26.140Z,100799.28
2022-10-21T10:39:51.560Z,100799.16
2022-10-21T10:42:28.819Z,100800.06
2022-10-21T10:44:59.879Z,100790.47
2022-10-21T10:47:42.042Z,100796.28
2022-10-21T10:50:04.689Z,100801.69
2022-10-21T10:52:27.151Z,100803.03
2022-10-21T10:55:12.664Z,100806.06
2022-10-21T10:57:44.349Z,100811.34
2022-10-21T11:00:20.200Z,100799.06
2022-10-21T11:02:49.778Z,100793.09
2022-10-21T11:05:38.433Z,100784.06
2022-10-21T11:08:17.842Z,100791.28
2022-10-21T11:10:54.388Z,100788.06
2022-10-21T11:13:19.514Z,100780.47
2022-10-21T11:15:53.650Z,100784.72
2022-10-21T11:19:15.417Z,100775.88
2022-10-21T11:21:46.282Z,100779.81
2022-10-21T11:24:40.711Z,100766.53
2022-10-21T11:27:21.927Z,100758.78
2022-10-21T11:30:11.867Z,100742.72
2022-10-21T11:33:11.217Z,100756.28
2022-10-21T11:36:24.423Z,100750.34
2022-10-21T11:39:27.120Z,100748.25
2022-10-21T11:42:11.846Z,100738.53
2022-10-21T11:45:17.465Z,100736.25
2022-10-21T11:48:09.369Z,100730.03
2022-10-21T11:50:38.718Z,100728.56
2022-10-21T11:53:36.759Z,100717.81
2022-10-21T11:56:25.246Z,100717.47
2022-10-21T12:02:43.171Z,100703.31
2022-10-21T12:05:33.874Z,100703.47
2022-10-21T12:08:32.327Z,100711.94
2022-10-21T12:11:13.779Z,100704.78
2022-10-21T12:13:46.799Z,100702.19
2022-10-21T12:16:17.643Z,100702.03
2022-10-21T12:18:51.326Z,100703.47
2022-10-21T12:21:24.099Z,100700.69
2022-10-21T12:23:48.000Z,100697.94
2022-10-21T12:26:32.334Z,100701.03
2022-10-21T12:29:44.077Z,100692.28
2022-10-21T12:32:11.503Z,100674.19
2022-10-21T12:34:33.920Z,100686.06
2022-10-21T12:36:56.768Z,100678.91
2022-10-21T12:39:34.699Z,100689.97
2022-10-21T12:42:13.608Z,100673.19
2022-10-21T12:44:36.516Z,100673.38
2022-10-21T12:50:31.328Z,100638.81
2022-10-21T12:53:24.764Z,100641.41
2022-10-21T12:56:01.962Z,100638.94
2022-10-21T12:58:44.958Z,100663.03
2022-10-21T13:01:29.211Z,100666.63
2022-10-21T13:03:53.109Z,100667.13
2022-10-21T13:06:15.566Z,100651.03
2022-10-21T13:08:52.632Z,100644.03
2022-10-21T13:11:24.922Z,100643.38
2022-10-21T13:13:48.101Z,100638.84
2022-10-21T13:16:19.209Z,100634.44
2022-10-21T13:19:15.603Z,100627.78
2022-10-21T13:21:47.598Z,100629.75
2022-10-21T13:24:13.367Z,100626.31
2022-10-21T13:26:35.708Z,100627.47
2022-10-21T13:29:04.361Z,100630.06
2022-10-21T13:31:26.851Z,100627.63
2022-10-21T13:33:52.623Z,100628.94
2022-10-21T13:36:15.342Z,100630.59
2022-10-21T13:38:47.229Z,100647.84
2022-10-21T13:41:29.477Z,100643.94
2022-10-21T13:44:03.487Z,100644.75
2022-10-21T13:46:31.108Z,100647.03
2022-10-21T13:48:53.767Z,100646.72
2022-10-21T13:51:28.679Z,100645.41
2022-10-21T13:53:58.314Z,100645.06
2022-10-21T13:56:32.458Z,100634.34
2022-10-21T13:58:54.938Z,100635.47
2022-10-21T14:01:39.827Z,100634.16
2022-10-21T14:04:15.126Z,100633.84
2022-10-21T14:06:39.170Z,100627.16
2022-10-21T14:09:04.348Z,100627.66
2022-10-21T14:11:33.484Z,100637.09
2022-10-21T14:14:02.333Z,100633.97
2022-10-21T14:16:38.796Z,100624.38
2022-10-21T14:19:11.610Z,100630.09
2022-10-21T14:21:38.276Z,100623.56
2022-10-21T14:24:00.646Z,100619.50
2022-10-21T14:26:23.073Z,100625.69
2022-10-21T14:28:45.785Z,100636.56
2022-10-21T14:31:11.989Z,100641.63
2022-10-21T14:33:34.622Z,100642.09
2022-10-21T14:36:19.825Z,100645.03
2022-10-21T14:39:03.773Z,100643.91
2022-10-21T14:41:37.347Z,100647.31
2022-10-21T14:44:25.417Z,100642.09
2022-10-21T14:46:50.063Z,100643.41
2022-10-21T14:49:41.974Z,100645.53
2022-10-21T14:52:06.829Z,100645.84
2022-10-21T14:54:47.533Z,100634.28
2022-10-21T14:57:42.750Z,100636.75
2022-10-21T15:00:07.267Z,100631.53
2022-10-21T15:02:33.457Z,100638.22
2022-10-21T15:04:58.139Z,100642.28
2022-10-21T15:07:39.238Z,100639.03
2022-10-21T15:10:04.584Z,100641.44
2022-10-21T15:12:26.972Z,100631.22
2022-10-21T15:14:49.323Z,100626.97
2022-10-21T15:17:14.331Z,100619.66
2022-10-21T15:19:45.154Z,100622.91
2022-10-21T15:22:15.474Z,100608.75
2022-10-21T15:24:44.359Z,100608.94
2022-10-21T15:27:06.760Z,100608.94
2022-10-21T15:29:37.784Z,100619.81
2022-10-21T15:32:00.742Z,100619.00
2022-10-21T15:34:23.105Z,100613.47
2022-10-21T15:36:45.587Z,100613.63
2022-10-21T15:39:09.428Z,100606.13
2022-10-21T15:41:32.094Z,100611.66
2022-10-21T15:44:02.350Z,100602.06
2022-10-21T15:46:28.911Z,100606.47
2022-10-21T15:48:51.296Z,100626.47
2022-10-21T15:51:13.792Z,100616.22
2022-10-21T15:53:38.689Z,100611.16
2022-10-21T15:56:03.438Z,100622.22
2022-10-21T15:58:25.895Z,100614.25
2022-10-21T16:00:48.297Z,100617.66
2022-10-21T16:03:10.682Z,100605.28
2022-10-21T16:05:33.048Z,100598.94
2022-10-21T16:07:55.555Z,100597.00
2022-10-21T16:10:27.822Z,100606.59
2022-10-21T16:12:50.197Z,100611.00
2022-10-21T16:15:12.826Z,100610.50
2022-10-21T16:17:35.343Z,100606.75
2022-10-21T16:19:57.700Z,100616.50
2022-10-21T16:22:22.026Z,100619.28
2022-10-21T16:24:44.449Z,100620.41
2022-10-21T16:27:11.868Z,100616.81
2022-10-21T16:29:34.251Z,100617.16
2022-10-21T16:31:56.626Z,100604.47
2022-10-21T16:34:19.558Z,100606.22
2022-10-21T16:36:41.950Z,100612.91
2022-10-21T16:39:16.195Z,100611.28
2022-10-21T16:41:38.643Z,100604.09
2022-10-21T16:44:01.185Z,100599.88
2022-10-21T16:46:32.846Z,100599.41
2022-10-21T16:48:55.179Z,100599.41
2022-10-21T16:51:17.858Z,100593.69
2022-10-21T16:53:40.473Z,100595.16
2022-10-21T16:56:03.710Z,100589.94
2022-10-21T16:58:26.099Z,100587.53
2022-10-21T17:00:48.818Z,100580.19
2022-10-21T17:03:12.117Z,100581.81
2022-10-21T17:08:01.801Z,100577.75
2022-10-21T17:10:24.134Z,100581.34
2022-10-21T17:12:46.455Z,100577.28
2022-10-21T17:15:09.610Z,100586.88
2022-10-21T17:17:32.103Z,100580.34
2022-10-21T17:19:54.439Z,100584.75
2022-10-21T17:22:17.213Z,100579.22
2022-10-21T17:24:39.555Z,100578.22
2022-10-21T17:27:01.945Z,100575.78
2022-10-21T17:29:24.431Z,100569.28
2022-10-21T17:31:46.796Z,100573.16
2022-10-21T17:34:21.333Z,100573.97
2022-10-21T17:36:43.721Z,100582.25
2022-10-21T17:39:06.128Z,100570.41
2022-10-21T17:41:28.518Z,100576.09
2022-10-21T17:43:50.900Z,100577.56
2022-10-21T17:46:22.603Z,100564.06
2022-10-21T17:48:45.844Z,100567.66
2022-10-21T17:51:09.089Z,100564.06
2022-10-21T17:53:31.477Z,100569.59
2022-10-21T17:56:04.890Z,100562.31
2022-10-21T17:58:27.838Z,100549.13
2022-10-21T18:00:50.289Z,100551.06
2022-10-21T18:03:12.763Z,100552.38
2022-10-21T18:05:35.223Z,100544.09
2022-10-21T18:07:57.547Z,100540.84
2022-10-21T18:10:20.176Z,100533.22
2022-10-21T18:12:42.719Z,100537.28
2022-10-21T18:15:05.744Z,100529.81
2022-10-21T18:17:28.079Z,100529.00
2022-10-21T18:19:51.399Z,100522.34
2022-10-21T18:22:13.979Z,100511.78
2022-10-21T18:24:36.374Z,100513.06
2022-10-21T18:26:58.675Z,100509.00
2022-10-21T18:29:22.283Z,100501.84
2022-10-21T18:31:44.613Z,100512.13
2022-10-21T18:34:09.313Z,100509.00
2022-10-21T18:36:32.067Z,100503.97
2022-10-21T18:38:54.536Z,100498.28
2022-10-21T18:41:20.558Z,100500.91
2022-10-21T18:43:53.144Z,100498.44
2022-10-21T18:46:15.501Z,100494.38
2022-10-21T18:48:37.853Z,100488.69
2022-10-21T18:51:08.217Z,100485.63
2022-10-21T18:53:30.815Z,100491.16
2022-10-21T18:55:53.172Z,100495.22
2022-10-21T18:58:15.545Z,100493.56
2022-10-21T19:00:37.996Z,100493.56
2022-10-21T19:03:00.360Z,100494.22
2022-10-21T19:05:24.341Z,100487.88
2022-10-21T19:07:46.768Z,100488.69
2022-10-21T19:10:09.242Z,100484.28
2022-10-21T19:12:31.629Z,100491.16
2022-10-21T19:14:54.025Z,100487.22
2022-10-21T19:17:16.565Z,100487.22
2022-10-21T19:19:39.643Z,100493.56
2022-10-21T19:22:02.149Z,100481.88
2022-10-21T19:24:24.668Z,100491.28
2022-10-21T19:26:52.292Z,100494.06
2022-10-21T19:29:16.696Z,100490.50
2022-10-21T19:31:39.957Z,100483.66
2022-10-21T19:34:02.235Z,100490.63
2022-10-21T19:36:24.681Z,100496.66
2022-10-21T19:38:47.038Z,100502.97
2022-10-21T19:41:11.256Z,100508.00
2022-10-21T19:43:33.658Z,100512.91
2022-10-21T19:45:57.465Z,100523.94
2022-10-21T19:48:21.154Z,100518.41
2022-10-21T19:50:47.923Z,100529.94
2022-10-21T19:53:10.256Z,100528.97
2022-10-21T19:55:33.120Z,100528.16
2022-10-21T19:57:55.466Z,100526.22
2022-10-21T20:00:17.890Z,100528.47
2022-10-21T20:02:42.797Z,100523.94
2022-10-21T20:05:05.650Z,100516.00
2022-10-21T20:07:28.052Z,100522.94
2022-10-21T20:09:50.400Z,100518.25
2022-10-21T20:12:12.713Z,100520.19
2022-10-21T20:14:35.067Z,100518.88
2022-10-21T20:16:57.380Z,100519.38
2022-10-21T20:19:19.718Z,100518.41
2022-10-21T20:21:42.310Z,100521.47
2022-10-21T20:24:05.178Z,100515.94
2022-10-21T20:26:28.827Z,100510.25
2022-10-21T20:28:51.694Z,100511.25
2022-10-21T20:31:15.430Z,100498.56
2022-10-21T20:33:43.212Z,100517.56
2022-10-21T20:36:16.982Z,100510.41
2022-10-21T20:38:39.471Z,100507.03
2022-10-21T20:41:07.241Z,100508.34
2022-10-21T20:43:30.134Z,100498.09
2022-10-21T20:45:52.539Z,100502.81
2022-10-21T20:48:14.910Z,100494.84
2022-10-21T20:50:37.380Z,100496.50
2022-10-21T20:52:59.932Z,100494.69
2022-10-21T20:55:22.284Z,100496.50
2022-10-21T20:57:44.692Z,100492.56
2022-10-21T21:00:07.859Z,100489.19
2022-10-21T21:02:30.201Z,100486.28
2022-10-21T21:04:52.586Z,100485.63
2022-10-21T21:07:14.981Z,100479.94
2022-10-21T21:10:01.066Z,100485.63
2022-10-21T21:12:19.662Z,100485.44
2022-10-21T21:14:42.005Z,100480.41
2022-10-21T21:17:04.417Z,100475.38
2022-10-21T21:19:26.881Z,100475.38
2022-10-21T21:21:49.363Z,100476.84
2022-10-21T21:24:11.914Z,100480.59
2022-10-21T21:26:38.656Z,100470.03
2022-10-21T21:29:01.416Z,100471.00
2022-10-21T21:31:25.333Z,100466.97
2022-10-21T21:33:48.001Z,100469.72
2022-10-21T21:35:50.144Z,100474.75
2022-10-21T21:37:52.273Z,100467.13
2022-10-21T21:39:54.433Z,100469.06
2022-10-21T21:41:56.555Z,100470.84
2022-10-21T21:43:58.776Z,100467.59
2022-10-21T21:46:01.063Z,100463.06
2022-10-21T21:48:03.353Z,100461.59
2022-10-21T21:50:06.124Z,100460.16
2022-10-21T21:52:08.173Z,100464.38
2022-10-21T21:54:10.960Z,100463.56
2022-10-21T21:56:13.118Z,100462.09
2022-10-21T21:58:34.307Z,100459.97
2022-10-21T22:00:57.322Z,100456.56
2022-10-21T22:03:21.599Z,100450.56
2022-10-21T22:05:44.156Z,100450.09
2022-10-21T22:08:06.659Z,100454.47
2022-10-21T22:10:29.099Z,100438.53
2022-10-21T22:12:51.596Z,100441.28
2022-10-21T22:15:35.739Z,100439.34
2022-10-21T22:17:56.551Z,100431.53
2022-10-21T22:20:19.314Z,100429.59
2022-10-21T22:22:41.753Z,100436.75
2022-10-21T22:25:11.581Z,100423.78
2022-10-21T22:27:33.961Z,100431.25
2022-10-21T22:29:56.621Z,100426.03
2022-10-21T22:32:19.041Z,100422.97
2022-10-21T22:34:41.590Z,100431.53
2022-10-21T22:37:03.974Z,100421.97
2022-10-21T22:39:26.445Z,100428.66
2022-10-21T22:41:48.840Z,100424.25
2022-10-21T22:44:12.327Z,100424.91
2022-10-21T22:46:35.041Z,100428.13
2022-10-21T22:48:57.616Z,100431.72
2022-10-21T22:51:20.583Z,100426.53
2022-10-21T22:53:42.954Z,100422.78
2022-10-21T22:56:05.435Z,100423.09
2022-10-21T22:58:28.207Z,100423.91
2022-10-21T23:00:50.808Z,100423.25
2022-10-21T23:03:13.471Z,100420.50
2022-10-21T23:05:35.852Z,100419.38
2022-10-21T23:07:58.157Z,100413.69
2022-10-21T23:10:20.520Z,100410.94
2022-10-21T23:12:43.103Z,100402.16
2022-10-21T23:15:06.676Z,100406.06
2022-10-21T23:17:29.053Z,100404.09
2022-10-21T23:19:52.340Z,100402.00
2022-10-21T23:22:14.980Z,100410.28
2022-10-21T23:24:37.687Z,100406.34
2022-10-21T23:27:01.401Z,100407.69
2022-10-21T23:29:23.946Z,100405.09
2022-10-21T23:31:46.368Z,100400.22
2022-10-21T23:34:09.521Z,100403.28
2022-10-21T23:36:33.252Z,100415.97
2022-10-21T23:38:56.375Z,100402.00
2022-10-21T23:41:18.808Z,100402.81
2022-10-21T23:43:41.162Z,100410.78
2022-10-21T23:46:03.547Z,100404.09
2022-10-21T23:48:26.034Z,100399.09
2022-10-21T23:50:48.856Z,100403.78
2022-10-21T23:53:11.244Z,100394.84
2022-10-21T23:57:57.498Z,100393.22
